Terminal Aerodrome Forecast
Issued by NWS

Current Version | Previous Version | Graphics & Text | Print | Product List | Glossary On
Versions: 1 2 3 4 5 6 7 8 9 10 11 12 13 14 15 16 17 18 19 20 21 22 23 24 25 26
858
FTUS41 KRLX 011529 AAA
TAFCKB
TAF AMD
KCKB 011529Z 0115/0212 24009G15KT P6SM SCT025 OVC035
      TEMPO 0115/0118 BKN025
     FM020000 26007KT P6SM OVC035=

USA.gov is the U.S. government's official web portal to all federal, state and local government web resources and services.